createdAt,value
2017-04-08T00:00:02.365Z,0
2017-04-08T00:00:34.672Z,0
2017-04-08T00:01:07.002Z,0
2017-04-08T00:01:39.350Z,0
2017-04-08T00:02:11.667Z,0
2017-04-08T00:02:43.974Z,0
2017-04-08T00:03:16.283Z,0
2017-04-08T00:03:48.592Z,0
2017-04-08T00:04:20.911Z,0
2017-04-08T00:04:53.225Z,0
2017-04-08T00:05:25.534Z,0
2017-04-08T00:05:57.856Z,0
2017-04-08T00:06:30.188Z,0
2017-04-08T00:07:02.591Z,0
2017-04-08T00:07:34.911Z,0
2017-04-08T00:08:07.242Z,0
2017-04-08T00:08:39.584Z,0
2017-04-08T00:09:11.938Z,0
2017-04-08T00:09:44.258Z,0
2017-04-08T00:10:16.564Z,0
2017-04-08T00:10:48.879Z,0
2017-04-08T00:11:21.189Z,0
2017-04-08T00:11:53.502Z,0
2017-04-08T00:12:25.819Z,0
2017-04-08T00:12:58.121Z,0
2017-04-08T00:13:30.435Z,0
2017-04-08T00:14:02.764Z,0
2017-04-08T00:14:35.075Z,0
2017-04-08T00:15:07.396Z,0
2017-04-08T00:15:39.722Z,0
2017-04-08T00:16:12.025Z,0
2017-04-08T00:16:44.350Z,0
2017-04-08T00:17:16.665Z,0
2017-04-08T00:17:48.977Z,0
2017-04-08T00:18:21.287Z,0
2017-04-08T00:18:53.610Z,0
2017-04-08T00:19:25.925Z,0
2017-04-08T00:19:58.231Z,0
2017-04-08T00:20:30.538Z,0
2017-04-08T00:21:02.850Z,0
2017-04-08T00:21:35.156Z,0
2017-04-08T00:22:07.461Z,0
2017-04-08T00:22:39.760Z,0
2017-04-08T00:23:12.054Z,0
2017-04-08T00:23:44.358Z,0
2017-04-08T00:24:16.674Z,0
2017-04-08T00:24:48.972Z,0
2017-04-08T00:25:21.273Z,0
2017-04-08T00:25:53.596Z,0
2017-04-08T00:26:25.933Z,0
2017-04-08T00:26:58.238Z,0
2017-04-08T00:27:30.538Z,0
2017-04-08T00:28:02.844Z,0
2017-04-08T00:28:35.144Z,0
2017-04-08T00:29:07.458Z,0
2017-04-08T00:29:39.757Z,0
2017-04-08T00:30:12.081Z,0
2017-04-08T00:30:44.386Z,0
2017-04-08T00:31:16.705Z,0
2017-04-08T00:31:49.063Z,0
2017-04-08T00:32:21.383Z,0
2017-04-08T00:32:53.710Z,0
2017-04-08T00:33:26.014Z,0
2017-04-08T00:33:58.329Z,0
2017-04-08T00:34:30.636Z,0
2017-04-08T00:35:02.960Z,0
2017-04-08T00:35:35.287Z,0
2017-04-08T00:36:07.596Z,0
2017-04-08T00:36:39.909Z,0
2017-04-08T00:37:12.218Z,0
2017-04-08T00:37:44.543Z,0
2017-04-08T00:38:16.871Z,0
2017-04-08T00:38:49.197Z,0
2017-04-08T00:39:21.525Z,0
2017-04-08T00:39:53.863Z,0
2017-04-08T00:40:26.166Z,0
2017-04-08T00:40:58.480Z,0
2017-04-08T00:41:30.786Z,0
2017-04-08T00:42:03.105Z,0
2017-04-08T00:42:35.447Z,0
2017-04-08T00:43:07.767Z,0
2017-04-08T00:43:40.097Z,0
2017-04-08T00:44:12.421Z,0
2017-04-08T00:44:44.750Z,0
2017-04-08T00:45:17.050Z,0
2017-04-08T00:45:49.355Z,0
2017-04-08T00:46:21.649Z,0
2017-04-08T00:46:53.958Z,0
2017-04-08T00:47:26.256Z,0
2017-04-08T00:47:58.574Z,0
2017-04-08T00:48:30.890Z,0
2017-04-08T00:49:03.222Z,0
2017-04-08T00:49:35.517Z,0
2017-04-08T00:50:07.829Z,0
2017-04-08T00:50:40.148Z,0
2017-04-08T00:51:12.463Z,0
2017-04-08T00:51:44.782Z,0
2017-04-08T00:52:17.089Z,0
2017-04-08T00:52:49.405Z,0
2017-04-08T00:53:21.717Z,0
2017-04-08T00:53:54.035Z,0
2017-04-08T00:54:26.337Z,0
2017-04-08T00:54:58.647Z,0
2017-04-08T00:55:30.972Z,0
2017-04-08T00:56:03.277Z,0
2017-04-08T00:56:35.590Z,0
2017-04-08T00:57:07.904Z,0
2017-04-08T00:57:40.216Z,0
2017-04-08T00:58:12.518Z,0
2017-04-08T00:58:44.847Z,0
2017-04-08T00:59:17.157Z,0
2017-04-08T00:59:49.461Z,0
2017-04-08T01:00:21.775Z,0
2017-04-08T01:00:54.091Z,0
2017-04-08T01:01:26.408Z,0
2017-04-08T01:01:58.740Z,0
2017-04-08T01:02:31.047Z,0
2017-04-08T01:03:03.364Z,0
2017-04-08T01:03:35.691Z,0
2017-04-08T01:04:08.007Z,0
2017-04-08T01:04:40.319Z,0
2017-04-08T01:05:12.632Z,0
2017-04-08T01:05:44.930Z,0
2017-04-08T01:06:17.236Z,0
2017-04-08T01:06:49.548Z,0
2017-04-08T01:07:21.857Z,0
2017-04-08T01:07:54.181Z,0
2017-04-08T01:08:26.481Z,0
2017-04-08T01:08:58.788Z,0
2017-04-08T01:09:31.109Z,0
2017-04-08T01:10:03.434Z,0
2017-04-08T01:10:35.738Z,0
2017-04-08T01:11:08.058Z,0
2017-04-08T01:11:40.373Z,0
2017-04-08T01:12:13.474Z,0
2017-04-08T01:12:45.733Z,0
2017-04-08T01:13:17.969Z,0
2017-04-08T01:13:50.226Z,0
2017-04-08T01:14:22.476Z,0
2017-04-08T01:14:54.730Z,0
2017-04-08T01:15:26.987Z,0
2017-04-08T01:15:59.252Z,0
2017-04-08T01:16:31.509Z,0
2017-04-08T01:17:03.758Z,0
2017-04-08T01:17:36.028Z,0
2017-04-08T01:18:08.307Z,0
2017-04-08T01:18:40.579Z,0
2017-04-08T01:19:12.824Z,0
2017-04-08T01:19:45.072Z,0
2017-04-08T01:20:17.317Z,0
2017-04-08T01:20:50.084Z,0
2017-04-08T01:21:23.051Z,0
2017-04-08T01:21:55.304Z,0
2017-04-08T01:22:27.567Z,0
2017-04-08T01:22:59.816Z,0
2017-04-08T01:23:32.060Z,0
2017-04-08T01:24:04.340Z,0
2017-04-08T01:24:36.602Z,0
2017-04-08T01:25:09.716Z,0
2017-04-08T01:25:41.960Z,0
2017-04-08T01:26:14.213Z,0
2017-04-08T01:26:46.462Z,0
2017-04-08T01:27:18.696Z,0
2017-04-08T01:27:50.958Z,0
2017-04-08T01:28:23.182Z,0
2017-04-08T01:28:55.442Z,0
2017-04-08T01:29:27.677Z,0
2017-04-08T01:29:59.923Z,0
2017-04-08T01:30:32.183Z,0
2017-04-08T01:31:05.059Z,0
2017-04-08T01:31:37.303Z,0
2017-04-08T01:32:09.563Z,0
2017-04-08T01:32:41.797Z,0
2017-04-08T01:33:14.024Z,0
2017-04-08T01:33:46.270Z,0
2017-04-08T01:34:19.038Z,0
2017-04-08T01:34:52.081Z,0
2017-04-08T01:35:24.457Z,0
2017-04-08T01:35:56.736Z,0
2017-04-08T01:36:28.998Z,0
2017-04-08T01:37:01.274Z,0
2017-04-08T01:37:33.522Z,0
2017-04-08T01:38:05.795Z,0
2017-04-08T01:38:38.527Z,0
2017-04-08T01:39:10.775Z,0
2017-04-08T01:39:43.027Z,0
2017-04-08T01:40:15.279Z,0
2017-04-08T01:40:47.522Z,0
2017-04-08T01:41:19.778Z,0
2017-04-08T01:41:52.015Z,0
2017-04-08T01:42:24.391Z,0
2017-04-08T01:42:56.662Z,0
2017-04-08T01:43:28.910Z,0
2017-04-08T01:44:01.154Z,0
2017-04-08T01:44:33.405Z,0
2017-04-08T01:45:05.657Z,0
2017-04-08T01:45:38.600Z,0
2017-04-08T01:46:10.853Z,0
2017-04-08T01:46:43.118Z,0
2017-04-08T01:47:15.359Z,0
2017-04-08T01:47:47.673Z,0
2017-04-08T01:48:19.922Z,0
2017-04-08T01:48:53.621Z,0
2017-04-08T01:49:25.891Z,0
2017-04-08T01:49:58.155Z,0
2017-04-08T01:50:30.406Z,0
2017-04-08T01:51:02.675Z,0
2017-04-08T01:51:35.562Z,0
2017-04-08T01:52:07.870Z,0
2017-04-08T01:52:40.179Z,0
2017-04-08T01:53:12.491Z,0
2017-04-08T01:53:44.811Z,0
2017-04-08T01:54:17.126Z,0
2017-04-08T01:54:49.440Z,0
2017-04-08T01:55:21.742Z,0
2017-04-08T01:55:54.048Z,0
2017-04-08T01:56:26.355Z,0
2017-04-08T01:56:58.677Z,0
2017-04-08T01:57:30.995Z,0
2017-04-08T01:58:03.309Z,0
2017-04-08T01:58:35.633Z,0
2017-04-08T01:59:07.941Z,0
2017-04-08T01:59:40.247Z,0
2017-04-08T02:00:12.550Z,0
2017-04-08T02:00:44.870Z,0
2017-04-08T02:01:17.175Z,0
2017-04-08T02:01:49.493Z,0
2017-04-08T02:02:21.803Z,0
2017-04-08T02:02:54.117Z,0
2017-04-08T02:03:26.427Z,0
2017-04-08T02:03:58.722Z,0
2017-04-08T02:04:31.039Z,0
2017-04-08T02:05:03.355Z,0
2017-04-08T02:05:35.667Z,0
2017-04-08T02:06:07.973Z,0
2017-04-08T02:06:40.278Z,0
2017-04-08T02:07:12.600Z,0
2017-04-08T02:07:44.926Z,0
2017-04-08T02:08:17.227Z,0
2017-04-08T02:08:49.529Z,0
2017-04-08T02:09:21.838Z,0
2017-04-08T02:09:54.138Z,0
2017-04-08T02:10:26.461Z,0
2017-04-08T02:10:58.775Z,0
2017-04-08T02:11:31.081Z,0
2017-04-08T02:12:03.398Z,0
2017-04-08T02:12:35.717Z,0
2017-04-08T02:13:08.037Z,0
2017-04-08T02:13:40.361Z,0
2017-04-08T02:14:12.668Z,0
2017-04-08T02:14:44.978Z,0
2017-04-08T02:15:17.285Z,0
2017-04-08T02:15:49.594Z,0
2017-04-08T02:16:21.898Z,0
2017-04-08T02:16:54.216Z,0
2017-04-08T02:17:26.535Z,0
2017-04-08T02:17:58.834Z,0
2017-04-08T02:18:31.138Z,0
2017-04-08T02:19:03.428Z,0
2017-04-08T02:19:35.742Z,0
2017-04-08T02:20:08.067Z,0
2017-04-08T02:20:40.377Z,0
2017-04-08T02:21:12.688Z,0
2017-04-08T02:21:45.002Z,0
2017-04-08T02:22:17.270Z,0
2017-04-08T02:22:49.525Z,0
2017-04-08T02:23:21.765Z,0
2017-04-08T02:23:54.054Z,0
2017-04-08T02:24:26.291Z,0
2017-04-08T02:24:58.728Z,0
2017-04-08T02:25:31.009Z,0
2017-04-08T02:26:03.271Z,0
2017-04-08T02:26:35.516Z,0
2017-04-08T02:27:07.887Z,0
2017-04-08T02:27:40.181Z,0
2017-04-08T02:28:12.465Z,0
2017-04-08T02:28:44.721Z,0
2017-04-08T02:29:17.967Z,0
2017-04-08T02:29:50.213Z,0
2017-04-08T02:30:22.467Z,0
2017-04-08T02:30:54.723Z,0
2017-04-08T02:31:26.965Z,0
2017-04-08T02:31:59.270Z,0
2017-04-08T02:32:31.577Z,0
2017-04-08T02:33:03.893Z,0
2017-04-08T02:33:36.212Z,0
2017-04-08T02:34:08.517Z,0
2017-04-08T02:34:40.821Z,0
2017-04-08T02:35:13.120Z,0
2017-04-08T02:35:45.434Z,0
2017-04-08T02:36:17.733Z,0
2017-04-08T02:36:50.054Z,0
2017-04-08T02:37:22.350Z,0
2017-04-08T02:37:54.670Z,0
2017-04-08T02:38:26.999Z,0
2017-04-08T02:38:59.309Z,0
2017-04-08T02:39:31.626Z,0
2017-04-08T02:40:03.941Z,0
2017-04-08T02:40:36.246Z,0
2017-04-08T02:41:08.552Z,0
2017-04-08T02:41:40.849Z,0
2017-04-08T02:42:13.154Z,0
2017-04-08T02:42:45.466Z,0
2017-04-08T02:43:17.782Z,0
2017-04-08T02:43:50.088Z,0
2017-04-08T02:44:22.391Z,0
2017-04-08T02:44:54.710Z,0
2017-04-08T02:45:27.047Z,0
2017-04-08T02:45:59.358Z,0
2017-04-08T02:46:31.673Z,0
2017-04-08T02:47:03.992Z,0
2017-04-08T02:47:36.314Z,0
2017-04-08T02:48:08.643Z,0
2017-04-08T02:48:40.938Z,0
2017-04-08T02:49:13.239Z,0
2017-04-08T02:49:45.559Z,0
2017-04-08T02:50:17.864Z,0
2017-04-08T02:50:50.156Z,0
2017-04-08T02:51:22.460Z,0
2017-04-08T02:51:54.767Z,0
2017-04-08T02:52:27.073Z,0
2017-04-08T02:52:59.368Z,0
2017-04-08T02:53:31.679Z,0
2017-04-08T02:54:04.011Z,0
2017-04-08T02:54:36.337Z,0
2017-04-08T02:55:08.651Z,0
2017-04-08T02:55:40.953Z,0
2017-04-08T02:56:13.259Z,0
2017-04-08T02:56:45.565Z,0
2017-04-08T02:57:17.867Z,0
2017-04-08T02:57:50.174Z,0
2017-04-08T02:58:22.510Z,0
2017-04-08T02:58:54.815Z,0
2017-04-08T02:59:27.132Z,0
2017-04-08T02:59:59.447Z,0
2017-04-08T03:00:31.751Z,0
2017-04-08T03:01:04.077Z,0
2017-04-08T03:01:36.395Z,0
2017-04-08T03:02:08.704Z,0
2017-04-08T03:02:41.002Z,0
2017-04-08T03:03:13.301Z,0
2017-04-08T03:03:45.630Z,0
2017-04-08T03:04:17.932Z,0
2017-04-08T03:04:50.238Z,0
2017-04-08T03:05:22.537Z,0
2017-04-08T03:05:54.851Z,0
2017-04-08T03:06:27.145Z,0
2017-04-08T03:06:59.445Z,0
2017-04-08T03:07:31.771Z,0
2017-04-08T03:08:04.059Z,0
2017-04-08T03:08:36.373Z,0
2017-04-08T03:09:08.683Z,0
2017-04-08T03:09:40.990Z,0
2017-04-08T03:10:13.305Z,0
2017-04-08T03:10:45.609Z,0
2017-04-08T03:11:17.910Z,0
2017-04-08T03:11:50.225Z,0
2017-04-08T03:12:22.528Z,0
2017-04-08T03:12:54.839Z,0
2017-04-08T03:13:27.139Z,0
2017-04-08T03:13:59.447Z,0
2017-04-08T03:14:31.771Z,0
2017-04-08T03:15:04.070Z,0
2017-04-08T03:15:36.374Z,0
2017-04-08T03:16:08.680Z,0
2017-04-08T03:16:40.979Z,0
2017-04-08T03:17:13.287Z,0
2017-04-08T03:17:45.592Z,0
2017-04-08T03:18:17.917Z,0
2017-04-08T03:18:50.234Z,0
2017-04-08T03:19:22.530Z,0
2017-04-08T03:19:54.854Z,0
2017-04-08T03:20:27.162Z,0
2017-04-08T03:20:59.473Z,0
2017-04-08T03:21:31.789Z,0
2017-04-08T03:22:04.047Z,0
2017-04-08T03:22:36.301Z,0
2017-04-08T03:23:08.542Z,0
2017-04-08T03:23:40.810Z,0
2017-04-08T03:24:13.076Z,0
2017-04-08T03:24:45.309Z,0
2017-04-08T03:25:18.196Z,0
2017-04-08T03:25:50.444Z,0
2017-04-08T03:26:23.552Z,0
2017-04-08T03:26:55.796Z,0
2017-04-08T03:27:28.027Z,0
2017-04-08T03:28:00.351Z,0
2017-04-08T03:28:32.614Z,0
2017-04-08T03:29:04.860Z,0
2017-04-08T03:29:37.149Z,0
2017-04-08T03:30:10.013Z,0
2017-04-08T03:30:42.274Z,0
2017-04-08T03:31:14.518Z,0
2017-04-08T03:31:46.758Z,0
2017-04-08T03:32:18.996Z,0
2017-04-08T03:32:51.250Z,0
2017-04-08T03:33:24.490Z,0
2017-04-08T03:33:57.592Z,0
2017-04-08T03:34:29.825Z,0
2017-04-08T03:35:02.091Z,0
2017-04-08T03:35:34.358Z,0
2017-04-08T03:36:06.624Z,0
2017-04-08T03:36:38.858Z,0
2017-04-08T03:37:11.125Z,0
2017-04-08T03:37:43.376Z,0
2017-04-08T03:38:15.624Z,0
2017-04-08T03:38:47.859Z,0
2017-04-08T03:39:20.110Z,0
2017-04-08T03:39:52.363Z,0
2017-04-08T03:40:24.621Z,0
2017-04-08T03:40:56.858Z,0
2017-04-08T03:41:29.099Z,0
2017-04-08T03:42:01.372Z,0
2017-04-08T03:42:33.681Z,0
2017-04-08T03:43:05.985Z,0
2017-04-08T03:43:38.284Z,0
2017-04-08T03:44:10.613Z,0
2017-04-08T03:44:42.939Z,0
2017-04-08T03:45:15.253Z,0
2017-04-08T03:45:47.559Z,0
2017-04-08T03:46:19.868Z,0
2017-04-08T03:46:52.175Z,0
2017-04-08T03:47:24.489Z,0
2017-04-08T03:47:56.801Z,0
2017-04-08T03:48:29.100Z,0
2017-04-08T03:49:01.395Z,0
2017-04-08T03:49:33.722Z,0
2017-04-08T03:50:06.022Z,0
2017-04-08T03:50:38.322Z,0
2017-04-08T03:51:10.626Z,0
2017-04-08T03:51:42.931Z,0
2017-04-08T03:52:15.241Z,0
2017-04-08T03:52:47.564Z,0
2017-04-08T03:53:19.882Z,0
2017-04-08T03:53:52.192Z,0
2017-04-08T03:54:24.491Z,0
2017-04-08T03:54:56.794Z,0
2017-04-08T03:55:29.116Z,0
2017-04-08T03:56:01.426Z,0
2017-04-08T03:56:33.727Z,0
2017-04-08T03:57:06.044Z,0
2017-04-08T03:57:38.367Z,0
2017-04-08T03:58:10.679Z,0
2017-04-08T03:58:43.017Z,0
2017-04-08T03:59:15.348Z,0
2017-04-08T03:59:47.662Z,0
2017-04-08T04:00:19.973Z,0
2017-04-08T04:00:52.282Z,0
2017-04-08T04:01:24.590Z,0
2017-04-08T04:01:56.892Z,0
2017-04-08T04:02:30.194Z,0
2017-04-08T04:03:02.507Z,0
2017-04-08T04:03:34.814Z,0
2017-04-08T04:04:07.166Z,0
2017-04-08T04:04:39.477Z,0
2017-04-08T04:05:11.820Z,0
2017-04-08T04:05:44.134Z,0
2017-04-08T04:06:16.450Z,0
2017-04-08T04:06:48.749Z,0
2017-04-08T04:07:21.082Z,0
2017-04-08T04:07:53.397Z,0
2017-04-08T04:08:25.706Z,0
2017-04-08T04:08:58.026Z,0
2017-04-08T04:09:30.346Z,0
2017-04-08T04:10:02.642Z,0
2017-04-08T04:10:34.949Z,0
2017-04-08T04:11:07.258Z,0
2017-04-08T04:11:39.584Z,0
2017-04-08T04:12:11.906Z,0
2017-04-08T04:12:44.209Z,0
2017-04-08T04:13:16.511Z,0
2017-04-08T04:13:48.818Z,0
2017-04-08T04:14:21.128Z,0
2017-04-08T04:14:53.430Z,0
2017-04-08T04:15:25.733Z,0
2017-04-08T04:15:58.035Z,0
2017-04-08T04:16:30.346Z,0
2017-04-08T04:17:02.649Z,0
2017-04-08T04:17:34.959Z,0
2017-04-08T04:18:07.266Z,0
2017-04-08T04:18:39.577Z,0
2017-04-08T04:19:11.876Z,0
2017-04-08T04:19:44.203Z,0
2017-04-08T04:20:16.498Z,0
2017-04-08T04:20:48.797Z,0
2017-04-08T04:21:21.103Z,0
2017-04-08T04:21:53.410Z,0
2017-04-08T04:22:25.720Z,0
2017-04-08T04:22:58.023Z,0
2017-04-08T04:23:30.344Z,0
2017-04-08T04:24:02.651Z,0
2017-04-08T04:24:34.972Z,0
2017-04-08T04:25:07.281Z,0
2017-04-08T04:25:39.590Z,0
2017-04-08T04:26:11.894Z,0
2017-04-08T04:26:44.213Z,0
2017-04-08T04:27:16.522Z,0
2017-04-08T04:27:48.842Z,0
2017-04-08T04:28:21.151Z,0
2017-04-08T04:28:53.468Z,0
2017-04-08T04:29:25.789Z,0
2017-04-08T04:29:58.107Z,0
2017-04-08T04:30:30.427Z,0
2017-04-08T04:31:02.723Z,0
2017-04-08T04:31:35.058Z,0
2017-04-08T04:32:07.314Z,0
2017-04-08T04:32:39.543Z,0
2017-04-08T04:33:11.786Z,0
2017-04-08T04:33:44.020Z,0
2017-04-08T04:34:16.277Z,0
2017-04-08T04:34:48.507Z,0
2017-04-08T04:35:20.741Z,0
2017-04-08T04:35:53.003Z,0
2017-04-08T04:36:25.286Z,0
2017-04-08T04:36:57.532Z,0
2017-04-08T04:37:29.879Z,0
2017-04-08T04:38:02.118Z,0
2017-04-08T04:38:34.373Z,0
2017-04-08T04:39:06.627Z,0
2017-04-08T04:39:39.531Z,0
2017-04-08T04:40:11.806Z,0
2017-04-08T04:40:44.047Z,0
2017-04-08T04:41:16.322Z,0
2017-04-08T04:41:48.679Z,0
2017-04-08T04:42:20.929Z,0
2017-04-08T04:42:53.183Z,0
2017-04-08T04:43:25.426Z,0
2017-04-08T04:43:57.677Z,0
2017-04-08T04:44:29.933Z,0
2017-04-08T04:45:02.189Z,0
2017-04-08T04:45:34.470Z,0
2017-04-08T04:46:06.736Z,0
2017-04-08T04:46:38.988Z,0
2017-04-08T04:47:11.254Z,0
2017-04-08T04:47:43.506Z,0
2017-04-08T04:48:15.756Z,0
2017-04-08T04:48:47.993Z,0
2017-04-08T04:49:21.118Z,0
2017-04-08T04:49:53.369Z,0
2017-04-08T04:50:25.754Z,0
2017-04-08T04:50:58.032Z,0
2017-04-08T04:51:30.277Z,0
2017-04-08T04:52:02.555Z,0
2017-04-08T04:52:34.827Z,0
2017-04-08T04:53:07.088Z,0
2017-04-08T04:53:39.346Z,0
2017-04-08T04:54:11.607Z,0
2017-04-08T04:54:43.859Z,0
2017-04-08T04:55:16.097Z,0
2017-04-08T04:55:48.344Z,0
2017-04-08T04:56:20.621Z,0
2017-04-08T04:56:52.881Z,0
2017-04-08T04:57:25.663Z,0
2017-04-08T04:57:57.913Z,0
2017-04-08T04:58:30.158Z,0
2017-04-08T04:59:03.163Z,0
2017-04-08T04:59:35.425Z,0
2017-04-08T05:00:07.673Z,0
2017-04-08T05:00:40.019Z,0
2017-04-08T05:01:12.276Z,0
2017-04-08T05:01:44.539Z,0
2017-04-08T05:02:16.842Z,0
2017-04-08T05:02:49.168Z,0
2017-04-08T05:03:21.503Z,0
2017-04-08T05:03:53.826Z,0
2017-04-08T05:04:26.141Z,0
2017-04-08T05:04:58.436Z,0
2017-04-08T05:05:30.742Z,0
2017-04-08T05:06:03.060Z,0
2017-04-08T05:06:35.363Z,0
2017-04-08T05:07:07.672Z,0
2017-04-08T05:07:39.992Z,0
2017-04-08T05:08:12.294Z,0
2017-04-08T05:08:44.607Z,0
2017-04-08T05:09:16.921Z,0
2017-04-08T05:09:49.240Z,0
2017-04-08T05:10:21.542Z,0
2017-04-08T05:10:53.855Z,0
2017-04-08T05:11:26.156Z,0
2017-04-08T05:11:58.427Z,0
2017-04-08T05:12:30.681Z,0
2017-04-08T05:13:02.952Z,0
2017-04-08T05:13:35.195Z,0
2017-04-08T05:14:07.453Z,0
2017-04-08T05:14:39.689Z,0
2017-04-08T05:15:11.958Z,0
2017-04-08T05:15:44.209Z,0
2017-04-08T05:16:16.481Z,0
2017-04-08T05:16:48.728Z,0
2017-04-08T05:17:20.981Z,0
2017-04-08T05:17:54.089Z,0
2017-04-08T05:18:26.335Z,0
2017-04-08T05:18:58.655Z,0
2017-04-08T05:19:31.592Z,0
2017-04-08T05:20:03.847Z,0
2017-04-08T05:20:36.088Z,0
2017-04-08T05:21:08.351Z,0
2017-04-08T05:21:40.651Z,0
2017-04-08T05:22:12.909Z,0
2017-04-08T05:22:45.187Z,0
2017-04-08T05:23:17.456Z,0
2017-04-08T05:23:49.715Z,0
2017-04-08T05:24:22.096Z,0
2017-04-08T05:24:54.359Z,0
2017-04-08T05:25:26.609Z,0
2017-04-08T05:25:58.853Z,0
2017-04-08T05:26:31.119Z,0
2017-04-08T05:27:03.364Z,0
2017-04-08T05:27:35.611Z,5
2017-04-08T05:28:07.852Z,5
2017-04-08T05:28:40.681Z,5
2017-04-08T05:29:12.963Z,5
2017-04-08T05:29:46.089Z,5
2017-04-08T05:30:18.323Z,5
2017-04-08T05:30:50.568Z,5
2017-04-08T05:31:22.881Z,5
2017-04-08T05:31:55.133Z,5
2017-04-08T05:32:27.381Z,5
2017-04-08T05:32:59.621Z,5
2017-04-08T05:33:31.879Z,5
2017-04-08T05:34:04.124Z,5
2017-04-08T05:34:37.151Z,5
2017-04-08T05:35:09.403Z,5
2017-04-08T05:35:41.669Z,5
2017-04-08T05:36:13.913Z,5
2017-04-08T05:36:46.652Z,5
2017-04-08T05:37:18.920Z,5
2017-04-08T05:37:51.179Z,10
2017-04-08T05:38:23.432Z,10
2017-04-08T05:38:55.672Z,10
2017-04-08T05:39:27.911Z,10
2017-04-08T05:40:00.146Z,10
2017-04-08T05:40:32.412Z,10
2017-04-08T05:41:04.725Z,10
2017-04-08T05:41:36.968Z,5
2017-04-08T05:42:09.206Z,5
2017-04-08T05:42:41.473Z,5
2017-04-08T05:43:13.728Z,5
2017-04-08T05:43:45.973Z,5
2017-04-08T05:44:18.226Z,5
2017-04-08T05:44:50.461Z,5
2017-04-08T05:45:22.709Z,5
2017-04-08T05:45:54.950Z,5
2017-04-08T05:46:27.193Z,5
2017-04-08T05:46:59.573Z,10
2017-04-08T05:47:31.833Z,10
2017-04-08T05:48:04.730Z,10
2017-04-08T05:48:36.996Z,10
2017-04-08T05:49:09.239Z,10
2017-04-08T05:49:41.490Z,10
2017-04-08T05:50:13.877Z,10
2017-04-08T05:50:46.125Z,10
2017-04-08T05:51:19.764Z,10
2017-04-08T05:51:52.075Z,10
2017-04-08T05:52:24.379Z,10
2017-04-08T05:52:56.715Z,10
2017-04-08T05:53:29.027Z,10
2017-04-08T05:54:01.328Z,10
2017-04-08T05:54:33.624Z,10
2017-04-08T05:55:05.941Z,10
2017-04-08T05:55:38.260Z,10
2017-04-08T05:56:10.570Z,10
2017-04-08T05:56:42.895Z,10
2017-04-08T05:57:15.219Z,10
2017-04-08T05:57:47.547Z,10
2017-04-08T05:58:19.860Z,10
2017-04-08T05:58:52.175Z,10
2017-04-08T05:59:24.472Z,10
2017-04-08T05:59:56.777Z,10
2017-04-08T06:00:29.082Z,10
2017-04-08T06:01:01.405Z,10
2017-04-08T06:01:33.710Z,10
2017-04-08T06:02:05.975Z,10
2017-04-08T06:02:38.340Z,10
2017-04-08T06:03:10.591Z,15
2017-04-08T06:03:43.720Z,15
2017-04-08T06:04:16.742Z,15
2017-04-08T06:04:49.006Z,15
2017-04-08T06:05:22.304Z,15
2017-04-08T06:05:54.543Z,15
2017-04-08T06:06:26.789Z,15
2017-04-08T06:06:59.040Z,15
2017-04-08T06:07:31.281Z,15
2017-04-08T06:08:04.078Z,15
2017-04-08T06:08:36.305Z,15
2017-04-08T06:09:08.546Z,15
2017-04-08T06:09:40.805Z,15
2017-04-08T06:10:13.069Z,15
2017-04-08T06:10:45.308Z,15
2017-04-08T06:11:17.581Z,15
2017-04-08T06:11:49.855Z,15
2017-04-08T06:12:22.196Z,15
2017-04-08T06:12:54.519Z,20
2017-04-08T06:13:26.839Z,20
2017-04-08T06:13:59.211Z,20
2017-04-08T06:14:31.546Z,20
2017-04-08T06:15:03.871Z,20
2017-04-08T06:15:36.193Z,25
2017-04-08T06:16:08.507Z,25
2017-04-08T06:16:40.844Z,20
2017-04-08T06:17:13.140Z,20
2017-04-08T06:17:45.472Z,20
2017-04-08T06:18:17.792Z,20
2017-04-08T06:18:50.113Z,25
2017-04-08T06:19:22.428Z,25
2017-04-08T06:19:54.721Z,25
2017-04-08T06:20:27.024Z,25
2017-04-08T06:20:59.336Z,25
2017-04-08T06:21:31.651Z,25
2017-04-08T06:22:03.925Z,25
2017-04-08T06:22:36.177Z,25
2017-04-08T06:23:08.419Z,20
2017-04-08T06:23:40.669Z,20
2017-04-08T06:24:13.670Z,20
2017-04-08T06:24:45.911Z,20
2017-04-08T06:25:18.164Z,20
2017-04-08T06:25:50.432Z,20
2017-04-08T06:26:23.575Z,20
2017-04-08T06:26:55.848Z,20
2017-04-08T06:27:28.220Z,25
2017-04-08T06:28:00.464Z,25
2017-04-08T06:28:32.707Z,25
2017-04-08T06:29:04.951Z,30
2017-04-08T06:29:37.217Z,30
2017-04-08T06:30:09.458Z,30
2017-04-08T06:30:41.732Z,25
2017-04-08T06:31:14.767Z,25
2017-04-08T06:31:47.005Z,25
2017-04-08T06:32:19.241Z,25
2017-04-08T06:32:51.499Z,25
2017-04-08T06:33:23.763Z,30
2017-04-08T06:33:56.006Z,30
2017-04-08T06:34:28.254Z,30
2017-04-08T06:35:00.522Z,30
2017-04-08T06:35:33.678Z,30
2017-04-08T06:36:06.710Z,30
2017-04-08T06:36:38.992Z,30
2017-04-08T06:37:11.232Z,30
2017-04-08T06:37:43.511Z,30
2017-04-08T06:38:15.851Z,30
2017-04-08T06:38:48.091Z,30
2017-04-08T06:39:20.341Z,30
2017-04-08T06:39:52.596Z,30
2017-04-08T06:40:25.628Z,30
2017-04-08T06:40:57.865Z,30
2017-04-08T06:41:30.128Z,30
2017-04-08T06:42:02.421Z,30
2017-04-08T06:42:34.747Z,35
2017-04-08T06:43:07.053Z,35
2017-04-08T06:43:39.346Z,35
2017-04-08T06:44:11.651Z,35
2017-04-08T06:44:43.951Z,35
2017-04-08T06:45:16.267Z,35
2017-04-08T06:45:48.567Z,35
2017-04-08T06:46:20.886Z,40
2017-04-08T06:46:53.187Z,40
2017-04-08T06:47:25.485Z,35
2017-04-08T06:47:57.792Z,35
2017-04-08T06:48:30.102Z,35
2017-04-08T06:49:02.411Z,35
2017-04-08T06:49:34.719Z,30
2017-04-08T06:50:07.025Z,30
2017-04-08T06:50:39.346Z,30
2017-04-08T06:51:11.648Z,30
2017-04-08T06:51:43.959Z,30
2017-04-08T06:52:16.271Z,30
2017-04-08T06:52:48.580Z,30
2017-04-08T06:53:20.895Z,30
2017-04-08T06:53:53.207Z,30
2017-04-08T06:54:25.501Z,30
2017-04-08T06:54:57.819Z,30
2017-04-08T06:55:30.146Z,30
2017-04-08T06:56:02.455Z,35
2017-04-08T06:56:34.782Z,35
2017-04-08T06:57:07.088Z,40
2017-04-08T06:57:39.415Z,45
2017-04-08T06:58:11.739Z,45
2017-04-08T06:58:44.051Z,45
2017-04-08T06:59:16.355Z,45
2017-04-08T06:59:48.697Z,50
2017-04-08T07:00:20.998Z,50
2017-04-08T07:00:53.304Z,50
2017-04-08T07:01:25.643Z,50
2017-04-08T07:01:57.924Z,50
2017-04-08T07:02:30.165Z,50
2017-04-08T07:03:02.420Z,50
2017-04-08T07:03:34.688Z,50
2017-04-08T07:04:06.990Z,50
2017-04-08T07:04:39.250Z,50
2017-04-08T07:05:11.501Z,50
2017-04-08T07:05:43.754Z,55
2017-04-08T07:06:16.000Z,55
2017-04-08T07:06:48.241Z,55
2017-04-08T07:07:20.499Z,55
2017-04-08T07:07:52.755Z,55
2017-04-08T07:08:25.018Z,50
2017-04-08T07:08:57.269Z,50
2017-04-08T07:09:29.507Z,50
2017-04-08T07:10:01.761Z,50
2017-04-08T07:10:34.018Z,50
2017-04-08T07:11:07.279Z,50
2017-04-08T07:11:39.531Z,45
2017-04-08T07:12:11.829Z,45
2017-04-08T07:12:44.151Z,45
2017-04-08T07:13:16.463Z,45
2017-04-08T07:13:48.763Z,50
2017-04-08T07:14:21.083Z,50
2017-04-08T07:14:53.390Z,50
2017-04-08T07:15:25.700Z,55
2017-04-08T07:15:57.990Z,55
2017-04-08T07:16:30.300Z,55
2017-04-08T07:17:02.616Z,55
2017-04-08T07:17:34.927Z,55
2017-04-08T07:18:07.233Z,55
2017-04-08T07:18:39.546Z,55
2017-04-08T07:19:11.851Z,60
2017-04-08T07:19:44.167Z,60
2017-04-08T07:20:16.464Z,60
2017-04-08T07:20:48.778Z,60
2017-04-08T07:21:21.122Z,60
2017-04-08T07:21:53.382Z,65
2017-04-08T07:22:25.642Z,65
2017-04-08T07:22:57.900Z,65
2017-04-08T07:23:30.149Z,65
2017-04-08T07:24:02.391Z,65
2017-04-08T07:24:34.637Z,65
2017-04-08T07:25:06.892Z,65
2017-04-08T07:25:39.166Z,65
2017-04-08T07:26:11.428Z,65
2017-04-08T07:26:43.699Z,65
2017-04-08T07:27:15.947Z,65
2017-04-08T07:27:48.197Z,65
2017-04-08T07:28:20.441Z,65
2017-04-08T07:28:52.767Z,65
2017-04-08T07:29:25.024Z,65
2017-04-08T07:29:57.288Z,65
2017-04-08T07:30:29.544Z,65
2017-04-08T07:31:01.795Z,65
2017-04-08T07:31:34.050Z,65
2017-04-08T07:32:06.348Z,65
2017-04-08T07:32:38.648Z,65
2017-04-08T07:33:10.959Z,65
2017-04-08T07:33:43.251Z,65
2017-04-08T07:34:15.559Z,65
2017-04-08T07:34:47.877Z,65
2017-04-08T07:35:20.223Z,65
2017-04-08T07:35:52.532Z,65
2017-04-08T07:36:24.846Z,65
2017-04-08T07:36:57.151Z,65
2017-04-08T07:37:29.459Z,65
2017-04-08T07:38:01.766Z,70
2017-04-08T07:38:34.073Z,70
2017-04-08T07:39:06.382Z,70
2017-04-08T07:39:38.701Z,70
2017-04-08T07:40:11.000Z,70
2017-04-08T07:40:43.305Z,70
2017-04-08T07:41:15.635Z,65
2017-04-08T07:41:47.948Z,65
2017-04-08T07:42:20.214Z,65
2017-04-08T07:42:53.224Z,65
2017-04-08T07:43:25.484Z,65
2017-04-08T07:43:57.738Z,65
2017-04-08T07:44:30.723Z,65
2017-04-08T07:45:02.970Z,65
2017-04-08T07:45:35.217Z,70
2017-04-08T07:46:07.465Z,65
2017-04-08T07:46:39.774Z,65
2017-04-08T07:47:12.029Z,65
2017-04-08T07:47:44.273Z,65
2017-04-08T07:48:16.529Z,65
2017-04-08T07:48:48.777Z,65
2017-04-08T07:49:21.008Z,65
2017-04-08T07:49:53.261Z,65
2017-04-08T07:50:25.626Z,60
2017-04-08T07:50:57.890Z,60
2017-04-08T07:51:30.146Z,60
2017-04-08T07:52:02.399Z,60
2017-04-08T07:52:34.665Z,60
2017-04-08T07:53:06.935Z,60